Time;durP1;ratioP1;P1;durP2;ratioP2;P2;SDS_P1;SDS_P2;PMS_P1;PMS_P2;Temp;Humidity;BMP_temperature;BMP_pressure;BME280_temperature;BME280_humidity;BME280_pressure;Samples;Min_cycle;Max_cycle;Signal;HPM_P1;HPM_P2
2022/03/01 00:02:15;;;;;;;;;;;;;;;-1.59;87.78;101494.63;4918933;29;19927;-89
2022/03/01 00:04:40;;;;;;;;;;;;;;;-1.69;87.47;101489.50;4936244;29;20030;-89
2022/03/01 00:07:07;;;;;;;;;;;;;;;-1.62;87.48;101494.47;4935963;29;19923;-90
2022/03/01 00:09:33;;;;;;;;;;;;;;;-1.63;86.96;101498.31;4925849;29;19945;-90
2022/03/01 00:11:58;;;;;;;;;;;;;;;-1.64;85.96;101500.22;4899742;29;20022;-90
2022/03/01 00:14:23;;;;;;;;;;;;;;;-1.62;85.60;101514.34;4925300;29;19922;-90
2022/03/01 00:16:49;;;;;;;;;;;;;;;-1.62;85.51;101521.69;4935104;29;19966;-89
2022/03/01 00:19:14;;;;;;;;;;;;;;;-1.62;84.40;101508.09;4934899;29;19923;-89
2022/03/01 00:21:40;;;;;;;;;;;;;;;-1.62;83.94;101516.25;4935319;29;19941;-89
2022/03/01 00:24:05;;;;;;;;;;;;;;;-1.66;84.29;101504.41;4933555;29;19934;-89
2022/03/01 00:26:30;;;;;;;;;;;;;;;-1.69;84.43;101515.91;4934310;29;19978;-90
2022/03/01 00:28:56;;;;;;;;;;;;;;;-1.72;84.39;101511.91;4928784;29;19923;-89
2022/03/01 00:31:21;;;;;;;;;;;;;;;-1.74;84.53;101510.63;4935573;29;19978;-90
2022/03/01 00:33:47;;;;;;;;;;;;;;;-1.78;84.66;101512.38;4934983;29;20082;-89
2022/03/01 00:36:12;;;;;;;;;;;;;;;-1.82;84.57;101517.66;4934864;29;19923;-90
2022/03/01 00:38:38;;;;;;;;;;;;;;;-1.85;84.98;101520.19;4935675;29;20013;-90
2022/03/01 00:41:03;;;;;;;;;;;;;;;-1.88;84.79;101519.72;4934840;29;19927;-89
2022/03/01 00:43:29;;;;;;;;;;;;;;;-1.91;84.63;101519.56;4914956;29;19930;-90
2022/03/01 00:45:54;;;;;;;;;;;;;;;-1.91;84.54;101525.00;4933737;29;20345;-89
2022/03/01 00:48:20;;;;;;;;;;;;;;;-1.94;84.82;101523.69;4934873;29;19926;-90
2022/03/01 00:50:45;;;;;;;;;;;;;;;-1.93;84.86;101514.44;4935285;29;19929;-89
2022/03/01 00:53:11;;;;;;;;;;;;;;;-1.94;84.65;101518.25;4934372;29;19931;-89
2022/03/01 00:55:36;;;;;;;;;;;;;;;-1.98;85.08;101509.13;4935442;29;19941;-90
2022/03/01 00:58:01;;;;;;;;;;;;;;;-2.01;85.06;101515.22;4933932;29;19926;-89
2022/03/01 01:00:27;;;;;;;;;;;;;;;-2.05;85.58;101511.53;4934478;29;19926;-89
2022/03/01 01:02:53;;;;;;;;;;;;;;;-2.08;85.33;101514.88;4935198;29;20013;-89
2022/03/01 01:05:18;;;;;;;;;;;;;;;-2.10;85.25;101508.19;4933389;29;19930;-89
2022/03/01 01:07:44;;;;;;;;;;;;;;;-2.16;85.24;101507.50;4933812;29;19922;-89
2022/03/01 01:10:09;;;;;;;;;;;;;;;-2.15;85.27;101508.31;4934771;29;19922;-89
2022/03/01 01:12:35;;;;;;;;;;;;;;;-2.18;85.44;101504.28;4933820;29;19990;-89
2022/03/01 01:15:00;;;;;;;;;;;;;;;-2.22;85.65;101497.88;4933969;29;19978;-89
2022/03/01 01:17:26;;;;;;;;;;;;;;;-2.26;85.58;101502.34;4934326;29;19942;-81
2022/03/01 01:19:51;;;;;;;;;;;;;;;-2.27;85.58;101503.50;4933571;29;20006;-81
2022/03/01 01:25:00;;;;;;;;;;;;;;;-2.32;86.23;101506.34;4933974;29;20433;-81
2022/03/01 01:27:26;;;;;;;;;;;;;;;-2.35;85.89;101498.81;4934016;29;19931;-81
2022/03/01 01:29:51;;;;;;;;;;;;;;;-2.36;85.84;101480.91;4934251;29;19923;-80
2022/03/01 01:32:17;;;;;;;;;;;;;;;-2.37;86.08;101501.03;4934040;29;19929;-81
2022/03/01 01:34:42;;;;;;;;;;;;;;;-2.42;86.34;101501.97;4933893;29;20408;-81
2022/03/01 01:37:07;;;;;;;;;;;;;;;-2.44;86.40;101498.00;4934303;29;19922;-81
2022/03/01 01:39:33;;;;;;;;;;;;;;;-2.49;86.29;101498.13;4916850;29;19922;-80
2022/03/01 01:41:58;;;;;;;;;;;;;;;-2.50;86.50;101501.94;4933764;29;19930;-81
2022/03/01 01:44:24;;;;;;;;;;;;;;;-2.53;86.57;101497.16;4934017;29;20396;-80
2022/03/01 01:46:49;;;;;;;;;;;;;;;-2.55;86.45;101493.97;4926638;29;19927;-81
2022/03/01 01:49:14;;;;;;;;;;;;;;;-2.59;87.00;101506.56;4933706;29;19923;-81
2022/03/01 01:51:40;;;;;;;;;;;;;;;-2.60;86.89;101502.22;4933971;29;20415;-80
2022/03/01 01:54:06;;;;;;;;;;;;;;;-2.63;87.06;101498.25;4933086;29;20377;-80
2022/03/01 01:56:32;;;;;;;;;;;;;;;-2.65;86.68;101500.44;4932657;29;19962;-81
2022/03/01 01:58:57;;;;;;;;;;;;;;;-2.65;86.98;101499.66;4933830;29;19977;-81
2022/03/01 02:04:04;;;;;;;;;;;;;;;-2.67;87.04;101510.03;4930597;23;20393;-90
2022/03/01 02:06:29;;;;;;;;;;;;;;;-2.69;86.82;101494.03;4910496;29;19923;-90
2022/03/01 02:08:55;;;;;;;;;;;;;;;-2.69;86.88;101504.09;4882055;29;19925;-91
2022/03/01 02:11:20;;;;;;;;;;;;;;;-2.70;86.89;101513.34;4921528;29;19973;-90
2022/03/01 02:13:45;;;;;;;;;;;;;;;-2.72;86.96;101508.25;4904976;29;19923;-91
2022/03/01 02:16:11;;;;;;;;;;;;;;;-2.73;86.96;101509.38;4898281;29;19927;-91
2022/03/01 02:18:37;;;;;;;;;;;;;;;-2.71;86.52;101506.34;4896712;29;20350;-85
2022/03/01 02:21:02;;;;;;;;;;;;;;;-2.69;86.45;101509.53;4897194;29;19975;-85
2022/03/01 02:23:28;;;;;;;;;;;;;;;-2.69;86.83;101501.38;4905284;29;19923;-85
2022/03/01 02:25:53;;;;;;;;;;;;;;;-2.69;86.41;101506.81;4901236;29;19918;-85
2022/03/01 02:28:18;;;;;;;;;;;;;;;-2.70;85.99;101499.78;4911139;29;20423;-85
2022/03/01 02:30:44;;;;;;;;;;;;;;;-2.72;86.11;101488.44;4916372;29;19923;-86
2022/03/01 02:33:09;;;;;;;;;;;;;;;-2.74;86.34;101488.75;4913832;29;19927;-85
2022/03/01 02:35:34;;;;;;;;;;;;;;;-2.75;86.28;101489.06;4904945;29;19927;-85
2022/03/01 02:38:00;;;;;;;;;;;;;;;-2.76;86.23;101482.84;4912481;29;19939;-86
2022/03/01 02:40:25;;;;;;;;;;;;;;;-2.75;86.34;101486.34;4898068;29;19930;-86
2022/03/01 02:42:51;;;;;;;;;;;;;;;-2.77;86.36;101485.84;4896844;29;19931;-86
2022/03/01 02:45:17;;;;;;;;;;;;;;;-2.77;86.23;101491.28;4866912;29;19923;-85
2022/03/01 02:47:42;;;;;;;;;;;;;;;-2.78;86.26;101484.25;4897291;29;19978;-85
2022/03/01 02:50:09;;;;;;;;;;;;;;;-2.79;86.36;101486.19;4907170;29;19958;-86
2022/03/01 02:52:34;;;;;;;;;;;;;;;-2.79;86.28;101488.09;4882687;29;20088;-86
2022/03/01 02:55:00;;;;;;;;;;;;;;;-2.80;86.23;101487.28;4882791;29;20456;-86
2022/03/01 02:57:25;;;;;;;;;;;;;;;-2.80;86.39;101491.91;4900924;29;20010;-91
2022/03/01 02:59:51;;;;;;;;;;;;;;;-2.84;86.41;101495.25;4921755;29;19927;-91
2022/03/01 03:02:18;;;;;;;;;;;;;;;-2.86;86.53;101486.59;4885794;29;19974;-89
2022/03/01 03:04:44;;;;;;;;;;;;;;;-2.89;86.40;101498.09;4894629;29;19923;-91
2022/03/01 03:07:10;;;;;;;;;;;;;;;-2.91;86.70;101502.25;4893803;29;19930;-89
2022/03/01 03:09:35;;;;;;;;;;;;;;;-2.93;86.76;101494.41;4893129;29;19935;-89
2022/03/01 03:12:00;;;;;;;;;;;;;;;-2.95;87.02;101502.03;4895456;29;19930;-89
2022/03/01 03:14:26;;;;;;;;;;;;;;;-2.96;86.82;101500.47;4897290;29;20013;-90
2022/03/01 03:16:51;;;;;;;;;;;;;;;-2.97;87.01;101498.06;4881451;29;19927;-86
2022/03/01 03:19:17;;;;;;;;;;;;;;;-2.98;87.07;101494.53;4896442;29;19931;-86
2022/03/01 03:21:43;;;;;;;;;;;;;;;-2.98;87.13;101499.97;4894387;29;19931;-86
2022/03/01 03:24:08;;;;;;;;;;;;;;;-2.98;87.13;101486.38;4865119;29;20279;-87
2022/03/01 03:26:34;;;;;;;;;;;;;;;-3.01;87.08;101495.16;4879064;29;19923;-87
2022/03/01 03:28:59;;;;;;;;;;;;;;;-3.00;86.75;101499.50;4881115;29;19930;-86
2022/03/01 03:31:24;;;;;;;;;;;;;;;-3.03;87.17;101494.66;4877004;29;19923;-86
2022/03/01 03:33:50;;;;;;;;;;;;;;;-3.04;87.32;101503.94;4897805;29;20350;-87
2022/03/01 03:36:15;;;;;;;;;;;;;;;-3.03;87.49;101494.66;4882317;29;20497;-90
2022/03/01 03:38:41;;;;;;;;;;;;;;;-3.05;87.31;101499.59;4883762;29;19920;-89
2022/03/01 03:41:06;;;;;;;;;;;;;;;-3.03;87.49;101502.78;4893700;29;19931;-90
2022/03/01 03:43:31;;;;;;;;;;;;;;;-3.04;87.08;101494.97;4913792;29;19931;-89
2022/03/01 03:45:57;;;;;;;;;;;;;;;-3.05;87.28;101496.09;4904270;29;20005;-89
2022/03/01 03:48:22;;;;;;;;;;;;;;;-3.05;87.15;101499.59;4886258;29;19973;-89
2022/03/01 03:50:47;;;;;;;;;;;;;;;-3.08;87.42;101497.53;4900728;29;19922;-90
2022/03/01 03:53:13;;;;;;;;;;;;;;;-3.08;87.47;101502.16;4885211;29;19911;-90
2022/03/01 03:55:38;;;;;;;;;;;;;;;-3.06;87.43;101505.34;4899585;29;20313;-87
2022/03/01 03:58:04;;;;;;;;;;;;;;;-3.07;87.43;101490.97;4882606;29;20411;-87
2022/03/01 04:00:29;;;;;;;;;;;;;;;-3.06;86.98;101498.00;4892367;29;19927;-87
2022/03/01 04:02:55;;;;;;;;;;;;;;;-3.05;87.10;101496.09;4898217;29;19927;-88
2022/03/01 04:05:21;;;;;;;;;;;;;;;-3.06;87.15;101499.91;4897744;29;19931;-87
2022/03/01 04:07:47;;;;;;;;;;;;;;;-3.11;87.32;101498.13;4904353;29;19934;-87
2022/03/01 04:10:12;;;;;;;;;;;;;;;-3.11;87.50;101508.97;4896324;29;19923;-87
2022/03/01 04:12:38;;;;;;;;;;;;;;;-3.16;87.61;101505.59;4898395;29;19930;-87
2022/03/01 04:15:04;;;;;;;;;;;;;;;-3.17;87.44;101496.66;4897247;29;20524;-89
2022/03/01 04:17:29;;;;;;;;;;;;;;;-3.21;87.76;101498.38;4892970;29;20365;-90
2022/03/01 04:19:55;;;;;;;;;;;;;;;-3.21;87.95;101492.97;4891878;29;19927;-89
2022/03/01 04:22:21;;;;;;;;;;;;;;;-3.24;88.07;101501.72;4868366;29;19919;-90
2022/03/01 04:24:46;;;;;;;;;;;;;;;-3.24;88.12;101499.00;4898227;29;19931;-90
2022/03/01 04:27:12;;;;;;;;;;;;;;;-3.24;88.15;101498.19;4882214;29;19937;-90
2022/03/01 04:29:37;;;;;;;;;;;;;;;-3.24;87.95;101498.19;4891529;29;19923;-90
2022/03/01 04:32:03;;;;;;;;;;;;;;;-3.26;88.35;101498.50;4900407;29;19930;-88
2022/03/01 04:34:29;;;;;;;;;;;;;;;-3.23;88.33;101502.53;4869762;29;20289;-89
2022/03/01 04:36:54;;;;;;;;;;;;;;;-3.23;88.38;101503.31;4887140;29;20306;-89
2022/03/01 04:39:20;;;;;;;;;;;;;;;-3.21;88.03;101497.56;4866539;29;19966;-90
2022/03/01 04:41:46;;;;;;;;;;;;;;;-3.22;88.21;101507.63;4901975;29;19930;-90
2022/03/01 04:44:11;;;;;;;;;;;;;;;-3.21;88.04;101514.66;4897413;29;19927;-90
2022/03/01 04:46:37;;;;;;;;;;;;;;;-3.23;87.99;101511.44;4874947;29;20342;-90
2022/03/01 04:49:03;;;;;;;;;;;;;;;-3.24;88.35;101509.06;4882323;29;19952;-89
2022/03/01 04:51:29;;;;;;;;;;;;;;;-3.24;88.39;101504.44;4878138;29;20010;-89
2022/03/01 04:53:54;;;;;;;;;;;;;;;-3.22;88.35;101506.81;4881041;29;20019;-90
2022/03/01 04:56:19;;;;;;;;;;;;;;;-3.21;88.18;101498.38;4873793;29;20022;-89
2022/03/01 04:58:45;;;;;;;;;;;;;;;-3.18;88.00;101503.19;4897875;29;20356;-89
2022/03/01 05:01:10;;;;;;;;;;;;;;;-3.16;88.16;101497.47;4874661;29;19923;-89
2022/03/01 05:03:36;;;;;;;;;;;;;;;-3.16;87.97;101503.69;4883629;29;20014;-90
2022/03/01 05:06:01;;;;;;;;;;;;;;;-3.18;87.91;101497.75;4899616;29;19927;-90
2022/03/01 05:08:30;;;;;;;;;;;;;;;-3.18;88.02;101496.94;4874399;29;19919;-90
2022/03/01 05:10:59;;;;;;;;;;;;;;;-3.19;87.81;101477.16;4896196;29;19927;-89
2022/03/01 05:13:24;;;;;;;;;;;;;;;-3.18;87.82;101492.34;4880535;29;19919;-88
2022/03/01 05:15:50;;;;;;;;;;;;;;;-3.17;87.75;101493.94;4865409;29;19924;-88
2022/03/01 05:18:15;;;;;;;;;;;;;;;-3.19;87.53;101500.81;4880390;29;19952;-88
2022/03/01 05:20:40;;;;;;;;;;;;;;;-3.18;87.77;101497.75;4880273;29;20457;-87
2022/03/01 05:23:06;;;;;;;;;;;;;;;-3.20;87.75;101494.56;4896754;29;19923;-87
2022/03/01 05:25:31;;;;;;;;;;;;;;;-3.20;87.67;101497.28;4892909;29;19976;-87
2022/03/01 05:27:56;;;;;;;;;;;;;;;-3.20;87.65;101494.56;4880132;29;20266;-87
2022/03/01 05:30:22;;;;;;;;;;;;;;;-3.21;87.81;101492.97;4863270;29;19975;-90
2022/03/01 05:32:50;;;;;;;;;;;;;;;-3.21;87.57;101492.16;4855139;29;19974;-90
2022/03/01 05:35:17;;;;;;;;;;;;;;;-3.20;87.42;101491.03;4879218;29;19970;-90
2022/03/01 05:37:43;;;;;;;;;;;;;;;-3.20;87.58;101494.56;4863367;29;19931;-90
2022/03/01 05:40:08;;;;;;;;;;;;;;;-3.20;87.58;101499.19;4877727;29;19927;-90
2022/03/01 05:42:34;;;;;;;;;;;;;;;-3.23;87.90;101503.31;4877646;29;19962;-89
2022/03/01 05:44:59;;;;;;;;;;;;;;;-3.21;87.52;101511.97;4865051;29;19927;-89
2022/03/01 05:47:26;;;;;;;;;;;;;;;-3.18;87.50;101510.53;4892415;29;19924;-89
2022/03/01 05:49:52;;;;;;;;;;;;;;;-3.18;87.48;101514.03;4890293;29;19931;-87
2022/03/01 05:52:17;;;;;;;;;;;;;;;-3.17;87.42;101498.56;4884310;29;19971;-87
2022/03/01 05:54:42;;;;;;;;;;;;;;;-3.16;87.63;101497.47;4873126;29;19935;-87
2022/03/01 05:57:08;;;;;;;;;;;;;;;-3.17;87.55;101514.84;4898420;29;19926;-87
2022/03/01 05:59:33;;;;;;;;;;;;;;;-3.17;87.50;101512.94;4885289;29;19927;-86
2022/03/01 06:01:59;;;;;;;;;;;;;;;-3.14;87.61;101522.38;4908543;29;19931;-86
2022/03/01 06:04:24;;;;;;;;;;;;;;;-3.14;87.56;101517.75;4868464;29;19934;-87
2022/03/01 06:06:49;;;;;;;;;;;;;;;-3.12;87.65;101512.81;4880973;29;19978;-86
2022/03/01 06:09:15;;;;;;;;;;;;;;;-3.10;87.45;101509.78;4861405;29;19924;-90
2022/03/01 06:11:40;;;;;;;;;;;;;;;-3.10;87.60;101516.00;4873209;29;20385;-89
2022/03/01 06:14:06;;;;;;;;;;;;;;;-3.10;87.64;101516.00;4886001;29;19923;-88
2022/03/01 06:16:31;;;;;;;;;;;;;;;-3.08;87.65;101508.38;4903961;29;19956;-88
2022/03/01 06:18:57;;;;;;;;;;;;;;;-3.04;87.56;101522.13;4876687;29;19930;-85
2022/03/01 06:21:22;;;;;;;;;;;;;;;-2.99;87.29;101517.34;4865596;29;19930;-87
2022/03/01 06:23:48;;;;;;;;;;;;;;;-2.92;86.76;101520.44;4881891;29;19923;-91
2022/03/01 06:26:14;;;;;;;;;;;;;;;-2.86;86.91;101518.38;4882952;29;19919;-88
2022/03/01 06:28:39;;;;;;;;;;;;;;;-2.76;86.75;101520.06;4898569;29;19927;-87
2022/03/01 06:31:04;;;;;;;;;;;;;;;-2.67;86.42;101524.44;4882433;29;20027;-87
2022/03/01 06:33:30;;;;;;;;;;;;;;;-2.59;86.12;101525.56;4897911;29;20389;-87
2022/03/01 06:35:55;;;;;;;;;;;;;;;-2.53;85.51;101527.84;4898099;29;19923;-86
2022/03/01 06:38:20;;;;;;;;;;;;;;;-2.44;85.25;101522.44;4914635;29;19919;-84
2022/03/01 06:40:46;;;;;;;;;;;;;;;-2.32;85.17;101527.28;4895102;29;20073;-88
2022/03/01 06:43:11;;;;;;;;;;;;;;;-2.26;84.66;101521.38;4893327;29;19931;-87
2022/03/01 06:45:37;;;;;;;;;;;;;;;-2.17;84.50;101524.94;4878981;29;19988;-88
2022/03/01 06:48:02;;;;;;;;;;;;;;;-2.10;83.90;101527.97;4861909;29;19967;-88
2022/03/01 06:50:28;;;;;;;;;;;;;;;-2.07;83.14;101527.38;4879048;29;20310;-89
2022/03/01 06:52:53;;;;;;;;;;;;;;;-2.00;82.82;101530.41;4879396;29;19980;-89
2022/03/01 06:55:21;;;;;;;;;;;;;;;-1.94;81.99;101531.84;4863203;29;20018;-89
2022/03/01 06:57:47;;;;;;;;;;;;;;;-1.93;81.93;101528.03;4885578;29;19923;-88
2022/03/01 07:00:12;;;;;;;;;;;;;;;-1.85;82.22;101523.72;4863522;29;19978;-88
2022/03/01 07:02:41;;;;;;;;;;;;;;;-1.70;81.81;101517.84;4898313;29;19995;-88
2022/03/01 07:05:07;;;;;;;;;;;;;;;-1.69;81.92;101533.03;4880073;29;20302;-89
2022/03/01 07:07:33;;;;;;;;;;;;;;;-1.53;81.71;101525.19;4865663;29;19923;-88
2022/03/01 07:09:58;;;;;;;;;;;;;;;-1.37;81.16;101525.53;4865667;29;20067;-88
2022/03/01 07:12:23;;;;;;;;;;;;;;;-1.37;80.70;101529.03;4866450;29;19924;-88
2022/03/01 07:14:49;;;;;;;;;;;;;;;-1.39;80.60;101519.59;4867038;29;20393;-88
2022/03/01 07:17:16;;;;;;;;;;;;;;;-1.38;80.64;101524.72;4882366;29;19923;-88
2022/03/01 07:19:41;;;;;;;;;;;;;;;-1.25;81.44;101526.47;4882527;29;20397;-88
2022/03/01 07:22:07;;;;;;;;;;;;;;;-1.16;81.14;101527.28;4866987;29;19923;-87
2022/03/01 07:24:32;;;;;;;;;;;;;;;-1.11;80.62;101520.88;4882419;29;19924;-90
2022/03/01 07:26:58;;;;;;;;;;;;;;;-0.92;80.22;101524.03;4868596;29;20022;-88
2022/03/01 07:29:23;;;;;;;;;;;;;;;-0.81;79.08;101519.06;4866538;29;19962;-88
2022/03/01 07:31:48;;;;;;;;;;;;;;;-0.85;78.37;101524.34;4882479;29;19924;-87
2022/03/01 07:34:23;;;;;;;;;;;;;;;-0.73;79.26;101513.59;4853505;29;19971;-88
2022/03/01 07:36:49;;;;;;;;;;;;;;;-0.65;78.19;101517.41;4867588;29;19931;-87
2022/03/01 07:39:14;;;;;;;;;;;;;;;-0.68;77.56;101512.59;4852728;29;19926;-88
2022/03/01 07:41:40;;;;;;;;;;;;;;;-0.63;77.10;101509.69;4885161;29;19974;-85
2022/03/01 07:44:05;;;;;;;;;;;;;;;-0.61;77.51;101510.19;4917971;29;19932;-84
2022/03/01 07:46:30;;;;;;;;;;;;;;;-0.51;77.37;101521.50;4917844;29;19995;-89
2022/03/01 07:48:56;;;;;;;;;;;;;;;-0.38;76.82;101516.97;4917737;29;20030;-90
2022/03/01 07:51:21;;;;;;;;;;;;;;;-0.29;75.75;101514.22;4900663;29;19923;-89
2022/03/01 07:53:47;;;;;;;;;;;;;;;-0.30;75.35;101505.22;4900633;29;19962;-88
2022/03/01 07:56:13;;;;;;;;;;;;;;;-0.19;76.11;101506.44;4917417;29;20029;-89
2022/03/01 07:58:38;;;;;;;;;;;;;;;-0.02;76.50;101514.53;4917553;29;19923;-89
2022/03/01 08:01:04;;;;;;;;;;;;;;;0.16;74.63;101514.44;4900928;29;20282;-89
2022/03/01 08:03:29;;;;;;;;;;;;;;;0.31;75.21;101511.13;4900120;29;20301;-85
2022/03/01 08:05:55;;;;;;;;;;;;;;;0.51;73.80;101510.31;4917799;29;19923;-85
2022/03/01 08:08:20;;;;;;;;;;;;;;;0.58;71.94;101505.13;4899907;29;20036;-85
2022/03/01 08:10:48;;;;;;;;;;;;;;;0.67;73.23;101503.13;4917067;29;19934;-85
2022/03/01 08:13:14;;;;;;;;;;;;;;;0.82;73.56;101507.97;4884842;29;19930;-85
2022/03/01 08:15:39;;;;;;;;;;;;;;;0.78;71.27;101500.78;4917505;29;19927;-84
2022/03/01 08:18:05;;;;;;;;;;;;;;;0.96;71.96;101501.41;4900223;29;19923;-84
2022/03/01 08:20:31;;;;;;;;;;;;;;;0.83;70.20;101501.38;4899933;29;19930;-89
2022/03/01 08:22:57;;;;;;;;;;;;;;;0.94;71.68;101497.06;4917204;29;19927;-85
2022/03/01 08:25:22;;;;;;;;;;;;;;;1.07;69.74;101491.66;4916771;29;19927;-85
2022/03/01 08:27:48;;;;;;;;;;;;;;;1.29;70.54;101496.72;4917106;29;19929;-84
2022/03/01 08:30:13;;;;;;;;;;;;;;;1.33;69.48;101495.72;4916518;29;19947;-85
2022/03/01 08:32:39;;;;;;;;;;;;;;;1.27;69.28;101488.06;4916988;29;19923;-84
2022/03/01 08:35:04;;;;;;;;;;;;;;;1.46;68.95;101484.78;4916730;29;20437;-84
2022/03/01 08:37:30;;;;;;;;;;;;;;;1.50;68.42;101486.47;4916822;29;20390;-83
2022/03/01 08:39:55;;;;;;;;;;;;;;;1.54;68.60;101495.59;4916908;29;20018;-84
2022/03/01 08:42:20;;;;;;;;;;;;;;;1.51;67.97;101493.53;4916634;29;19923;-88
2022/03/01 08:44:46;;;;;;;;;;;;;;;1.66;69.57;101492.88;4916531;29;20010;-88
2022/03/01 08:47:11;;;;;;;;;;;;;;;1.78;66.40;101487.41;4916640;29;19923;-89
2022/03/01 08:49:36;;;;;;;;;;;;;;;1.91;68.25;101484.66;4916513;29;19927;-88
2022/03/01 08:52:02;;;;;;;;;;;;;;;1.92;66.68;101480.78;4916694;29;19920;-88
2022/03/01 08:54:28;;;;;;;;;;;;;;;1.91;67.12;101479.19;4916076;29;19923;-88
2022/03/01 08:56:53;;;;;;;;;;;;;;;2.12;66.41;101482.59;4916551;29;19966;-88
2022/03/01 08:59:18;;;;;;;;;;;;;;;2.23;66.76;101475.47;4899159;29;19927;-88
2022/03/01 09:01:44;;;;;;;;;;;;;;;2.46;66.72;101460.16;4916493;29;19927;-84
2022/03/01 09:04:09;;;;;;;;;;;;;;;2.55;66.68;101460.78;4916059;29;20009;-84
2022/03/01 09:06:35;;;;;;;;;;;;;;;2.58;65.67;101464.78;4916100;29;20031;-82
2022/03/01 09:09:00;;;;;;;;;;;;;;;2.73;64.99;101462.09;4916108;29;19919;-84
2022/03/01 09:11:26;;;;;;;;;;;;;;;2.81;63.95;101463.06;4905098;29;19923;-84
2022/03/01 09:13:51;;;;;;;;;;;;;;;2.69;63.68;101455.72;4897123;29;19924;-84
2022/03/01 09:16:16;;;;;;;;;;;;;;;2.78;64.98;101459.09;4897152;29;19934;-84
2022/03/01 09:18:42;;;;;;;;;;;;;;;2.83;63.27;101445.13;4880361;29;19944;-85
2022/03/01 09:21:08;;;;;;;;;;;;;;;3.01;64.41;101455.78;4880736;29;19923;-84
2022/03/01 09:23:33;;;;;;;;;;;;;;;3.06;63.84;101452.78;4880046;29;19971;-83
2022/03/01 09:25:59;;;;;;;;;;;;;;;3.12;64.11;101443.13;4865145;29;20308;-84
2022/03/01 09:28:24;;;;;;;;;;;;;;;3.06;64.32;101452.78;4895991;29;19928;-84
2022/03/01 09:30:50;;;;;;;;;;;;;;;3.19;64.31;101446.06;4865012;29;20326;-84
2022/03/01 09:33:15;;;;;;;;;;;;;;;3.15;64.28;101439.72;4880349;29;20301;-84
2022/03/01 09:35:41;;;;;;;;;;;;;;;3.44;64.70;101439.25;4880033;29;20479;-83
2022/03/01 09:38:07;;;;;;;;;;;;;;;3.66;64.46;101444.09;4897149;29;19974;-87
2022/03/01 09:40:32;;;;;;;;;;;;;;;3.85;63.40;101445.31;4880187;29;19923;-83
2022/03/01 09:42:58;;;;;;;;;;;;;;;4.04;62.33;101435.19;4896797;29;19919;-83
2022/03/01 09:45:23;;;;;;;;;;;;;;;4.11;60.82;101423.56;4896548;29;19927;-83
2022/03/01 09:47:49;;;;;;;;;;;;;;;4.33;60.15;101433.03;4896834;29;19919;-83
2022/03/01 09:50:15;;;;;;;;;;;;;;;4.60;58.96;101424.56;4879744;29;19969;-83
2022/03/01 09:52:41;;;;;;;;;;;;;;;4.89;59.48;101416.88;4880064;29;20475;-82
2022/03/01 09:55:08;;;;;;;;;;;;;;;4.77;58.50;101419.78;4879612;29;20400;-83
2022/03/01 09:57:33;;;;;;;;;;;;;;;4.47;57.56;101420.38;4879721;29;20014;-88
2022/03/01 09:59:58;;;;;;;;;;;;;;;4.45;58.96;101402.69;4879748;29;19925;-88
2022/03/01 10:02:34;;;;;;;;;;;;;;;4.41;58.94;101419.06;4896213;29;20059;-88
2022/03/01 10:04:59;;;;;;;;;;;;;;;4.45;58.61;101425.44;4879647;29;19930;-87
2022/03/01 10:07:25;;;;;;;;;;;;;;;4.29;56.98;101419.22;4896558;29;19927;-87
2022/03/01 10:09:51;;;;;;;;;;;;;;;4.34;58.27;101429.13;4896499;29;19981;-87
2022/03/01 10:12:23;;;;;;;;;;;;;;;4.47;58.75;101409.41;4896899;29;20449;-88
2022/03/01 10:14:54;;;;;;;;;;;;;;;4.85;56.85;101411.31;4882761;29;19986;-89
2022/03/01 10:17:20;;;;;;;;;;;;;;;5.21;56.38;101409.97;4899019;29;20282;-88
2022/03/01 10:19:45;;;;;;;;;;;;;;;5.52;51.62;101401.44;4915187;29;20400;-89
2022/03/01 10:22:11;;;;;;;;;;;;;;;5.86;50.30;101407.06;4915541;29;20420;-89
2022/03/01 10:24:45;;;;;;;;;;;;;;;6.15;49.77;101406.28;4914940;29;19934;-88
2022/03/01 10:27:11;;;;;;;;;;;;;;;6.27;47.23;101400.53;4915489;29;19923;-89
2022/03/01 10:29:41;;;;;;;;;;;;;;;6.43;47.29;101403.88;4897293;29;19923;-87
2022/03/01 10:32:10;;;;;;;;;;;;;;;6.70;46.82;101399.09;4915387;29;19933;-86
2022/03/01 10:34:38;;;;;;;;;;;;;;;6.86;46.29;101399.66;4897720;29;19923;-88
2022/03/01 10:37:03;;;;;;;;;;;;;;;6.94;45.93;101392.22;4915274;29;20385;-81
2022/03/01 10:39:29;;;;;;;;;;;;;;;7.12;44.58;101395.94;4898277;29;19938;-81
2022/03/01 10:41:55;;;;;;;;;;;;;;;7.01;44.42;101387.56;4886608;29;19923;-82
2022/03/01 10:44:27;;;;;;;;;;;;;;;7.04;44.85;101377.72;4901430;29;20367;-82
2022/03/01 10:46:53;;;;;;;;;;;;;;;6.95;45.17;101378.06;4918961;29;19927;-81
2022/03/01 10:49:23;;;;;;;;;;;;;;;7.16;44.71;101376.69;4901401;29;19971;-82
2022/03/01 10:51:49;;;;;;;;;;;;;;;7.14;43.86;101379.81;4901907;29;20017;-81
2022/03/01 10:54:35;;;;;;;;;;;;;;;7.35;44.16;101376.44;4918732;29;19927;-81
2022/03/01 10:57:02;;;;;;;;;;;;;;;7.39;43.58;101372.53;4917875;29;21241;-87
2022/03/01 10:59:28;;;;;;;;;;;;;;;7.30;43.65;101372.06;4870133;29;20301;-86
2022/03/01 11:01:54;;;;;;;;;;;;;;;7.35;42.75;101374.47;4901844;29;19927;-87
2022/03/01 11:04:21;;;;;;;;;;;;;;;7.38;42.32;101359.09;4900978;29;20385;-89
2022/03/01 11:06:47;;;;;;;;;;;;;;;7.41;43.63;101356.34;4918606;29;19969;-88
2022/03/01 11:09:12;;;;;;;;;;;;;;;7.35;43.28;101360.66;4901243;29;19959;-87
2022/03/01 11:11:38;;;;;;;;;;;;;;;7.33;44.27;101346.44;4898165;29;19998;-88
2022/03/01 11:14:03;;;;;;;;;;;;;;;7.44;42.33;101339.00;4899078;29;19931;-83
2022/03/01 11:16:35;;;;;;;;;;;;;;;7.37;43.15;101341.75;4899273;29;20433;-83
2022/03/01 11:19:19;;;;;;;;;;;;;;;7.44;43.59;101333.50;4899136;29;19954;-83
2022/03/01 11:21:45;;;;;;;;;;;;;;;7.73;41.60;101330.91;4898349;29;19927;-83
2022/03/01 11:24:11;;;;;;;;;;;;;;;7.83;41.85;101321.91;4866807;29;19923;-82
2022/03/01 11:26:37;;;;;;;;;;;;;;;7.81;41.13;101332.53;4899254;29;20328;-83
2022/03/01 11:29:07;;;;;;;;;;;;;;;7.77;40.46;101313.19;4882143;29;19928;-83
2022/03/01 11:31:32;;;;;;;;;;;;;;;7.61;41.93;101309.16;4882519;29;20389;-84
2022/03/01 11:34:01;;;;;;;;;;;;;;;7.76;40.75;101303.34;4882409;29;19927;-83
2022/03/01 11:36:30;;;;;;;;;;;;;;;7.83;41.10;101305.31;4898766;29;20010;-83
2022/03/01 11:39:07;;;;;;;;;;;;;;;7.88;39.84;101302.19;4898881;29;20014;-84
2022/03/01 11:41:39;;;;;;;;;;;;;;;7.56;40.63;101301.25;4898982;29;19923;-83
2022/03/01 11:44:07;;;;;;;;;;;;;;;7.65;41.19;101293.38;4882113;29;20449;-83
2022/03/01 11:46:38;;;;;;;;;;;;;;;7.72;41.53;101287.91;4898742;29;19923;-84
2022/03/01 11:49:03;;;;;;;;;;;;;;;7.74;40.44;101285.53;4900220;29;20676;-83
2022/03/01 11:51:32;;;;;;;;;;;;;;;7.79;41.32;101283.22;4884517;29;20294;-83
2022/03/01 11:53:59;;;;;;;;;;;;;;;7.97;41.41;101275.78;4889142;29;19927;-87
2022/03/01 11:56:27;;;;;;;;;;;;;;;8.03;40.26;101265.16;4870418;29;19943;-88
2022/03/01 11:58:52;;;;;;;;;;;;;;;8.01;39.48;101266.72;4885854;29;19987;-88
2022/03/01 12:01:20;;;;;;;;;;;;;;;8.00;39.80;101263.16;4888454;29;20523;-88
2022/03/01 12:03:47;;;;;;;;;;;;;;;7.79;40.76;101252.03;4889653;29;19935;-87
2022/03/01 12:06:12;;;;;;;;;;;;;;;7.67;40.55;101258.69;4888854;29;19932;-88
2022/03/01 12:08:38;;;;;;;;;;;;;;;7.62;41.35;101255.50;4907500;29;20441;-88
2022/03/01 12:11:04;;;;;;;;;;;;;;;7.71;39.81;101253.19;4888842;29;20389;-88
2022/03/01 12:13:33;;;;;;;;;;;;;;;7.64;39.99;101239.34;4906792;29;19973;-83
2022/03/01 12:15:59;;;;;;;;;;;;;;;7.68;40.27;101238.19;4890839;29;20382;-82
2022/03/01 12:18:28;;;;;;;;;;;;;;;7.71;39.29;101234.66;4870974;29;19942;-83
2022/03/01 12:20:53;;;;;;;;;;;;;;;7.78;40.09;101239.41;4897803;29;19993;-83
2022/03/01 12:23:26;;;;;;;;;;;;;;;8.00;40.44;101238.31;4899146;29;20397;-83
2022/03/01 12:25:51;;;;;;;;;;;;;;;8.30;38.47;101232.47;4889824;29;19942;-82
2022/03/01 12:28:17;;;;;;;;;;;;;;;8.18;37.24;101222.53;4904712;29;19923;-82
2022/03/01 12:30:43;;;;;;;;;;;;;;;8.13;38.64;101225.69;4901258;29;20010;-88
2022/03/01 12:33:13;;;;;;;;;;;;;;;8.21;38.14;101216.22;4881118;29;19939;-86
2022/03/01 12:35:40;;;;;;;;;;;;;;;8.49;38.02;101223.03;4885597;29;20017;-87
2022/03/01 12:38:06;;;;;;;;;;;;;;;8.73;38.99;101214.72;4893227;29;20367;-88
2022/03/01 12:40:31;;;;;;;;;;;;;;;8.78;36.46;101205.22;4879236;29;19971;-88